sensor_id;sensor_type;location;lat;lon;timestamp;P1;durP1;ratioP1;P2;durP2;ratioP2
40162;SDS011;25881;47.462;19.304;2022-09-01T00:01:42;2.65;;;1.50;;
40162;SDS011;25881;47.462;19.304;2022-09-01T00:04:08;4.07;;;1.70;;
40162;SDS011;25881;47.462;19.304;2022-09-01T00:06:34;2.85;;;1.67;;
40162;SDS011;25881;47.462;19.304;2022-09-01T00:09:01;5.55;;;1.60;;
40162;SDS011;25881;47.462;19.304;2022-09-01T00:11:27;4.60;;;1.58;;
40162;SDS011;25881;47.462;19.304;2022-09-01T00:13:52;3.13;;;1.70;;
40162;SDS011;25881;47.462;19.304;2022-09-01T00:16:19;3.78;;;1.85;;
40162;SDS011;25881;47.462;19.304;2022-09-01T00:18:45;4.47;;;1.85;;
40162;SDS011;25881;47.462;19.304;2022-09-01T00:21:12;2.80;;;1.70;;
40162;SDS011;25881;47.462;19.304;2022-09-01T00:23:37;2.13;;;1.35;;
40162;SDS011;25881;47.462;19.304;2022-09-01T00:26:03;3.90;;;1.65;;
40162;SDS011;25881;47.462;19.304;2022-09-01T00:28:28;4.20;;;1.80;;
40162;SDS011;25881;47.462;19.304;2022-09-01T00:30:56;4.03;;;1.50;;
40162;SDS011;25881;47.462;19.304;2022-09-01T00:33:22;5.32;;;1.80;;
40162;SDS011;25881;47.462;19.304;2022-09-01T00:35:47;3.10;;;1.60;;
40162;SDS011;25881;47.462;19.304;2022-09-01T00:38:12;6.60;;;2.07;;
40162;SDS011;25881;47.462;19.304;2022-09-01T00:40:38;5.50;;;2.10;;
40162;SDS011;25881;47.462;19.304;2022-09-01T00:45:54;4.97;;;1.92;;
40162;SDS011;25881;47.462;19.304;2022-09-01T00:48:21;6.90;;;2.00;;
40162;SDS011;25881;47.462;19.304;2022-09-01T00:50:47;7.43;;;2.70;;
40162;SDS011;25881;47.462;19.304;2022-09-01T00:53:12;5.43;;;2.10;;
40162;SDS011;25881;47.462;19.304;2022-09-01T00:55:38;6.18;;;2.30;;
40162;SDS011;25881;47.462;19.304;2022-09-01T00:58:03;6.47;;;2.33;;
40162;SDS011;25881;47.462;19.304;2022-09-01T01:00:30;9.75;;;3.15;;
40162;SDS011;25881;47.462;19.304;2022-09-01T01:02:56;6.00;;;2.30;;
40162;SDS011;25881;47.462;19.304;2022-09-01T01:05:21;5.68;;;2.72;;
40162;SDS011;25881;47.462;19.304;2022-09-01T01:07:47;7.28;;;2.85;;
40162;SDS011;25881;47.462;19.304;2022-09-01T01:10:13;7.72;;;2.80;;
40162;SDS011;25881;47.462;19.304;2022-09-01T01:12:40;6.07;;;2.58;;
40162;SDS011;25881;47.462;19.304;2022-09-01T01:15:08;9.70;;;3.03;;
40162;SDS011;25881;47.462;19.304;2022-09-01T01:17:33;4.90;;;2.75;;
40162;SDS011;25881;47.462;19.304;2022-09-01T01:19:59;6.57;;;2.85;;
40162;SDS011;25881;47.462;19.304;2022-09-01T01:22:52;4.13;;;2.80;;
40162;SDS011;25881;47.462;19.304;2022-09-01T01:28:05;6.33;;;2.90;;
40162;SDS011;25881;47.462;19.304;2022-09-01T01:30:31;6.82;;;3.15;;
40162;SDS011;25881;47.462;19.304;2022-09-01T01:32:57;7.30;;;2.72;;
40162;SDS011;25881;47.462;19.304;2022-09-01T01:35:23;4.10;;;2.67;;
40162;SDS011;25881;47.462;19.304;2022-09-01T01:37:49;6.22;;;2.42;;
40162;SDS011;25881;47.462;19.304;2022-09-01T01:40:15;5.40;;;2.35;;
40162;SDS011;25881;47.462;19.304;2022-09-01T01:42:42;8.65;;;3.05;;
40162;SDS011;25881;47.462;19.304;2022-09-01T01:45:08;5.15;;;2.47;;
40162;SDS011;25881;47.462;19.304;2022-09-01T01:47:36;6.38;;;3.00;;
40162;SDS011;25881;47.462;19.304;2022-09-01T01:50:01;5.23;;;2.80;;
40162;SDS011;25881;47.462;19.304;2022-09-01T01:52:28;6.28;;;2.80;;
40162;SDS011;25881;47.462;19.304;2022-09-01T01:54:54;5.35;;;2.92;;
40162;SDS011;25881;47.462;19.304;2022-09-01T01:57:19;8.27;;;3.10;;
40162;SDS011;25881;47.462;19.304;2022-09-01T01:59:44;7.70;;;2.93;;
40162;SDS011;25881;47.462;19.304;2022-09-01T02:02:10;8.18;;;3.00;;
40162;SDS011;25881;47.462;19.304;2022-09-01T02:04:37;5.70;;;2.53;;
40162;SDS011;25881;47.462;19.304;2022-09-01T02:07:04;4.40;;;2.92;;
40162;SDS011;25881;47.462;19.304;2022-09-01T02:09:30;4.20;;;3.20;;
40162;SDS011;25881;47.462;19.304;2022-09-01T02:11:55;5.77;;;2.80;;
40162;SDS011;25881;47.462;19.304;2022-09-01T02:14:22;6.50;;;2.70;;
40162;SDS011;25881;47.462;19.304;2022-09-01T02:16:48;7.70;;;3.13;;
40162;SDS011;25881;47.462;19.304;2022-09-01T02:19:13;5.18;;;3.10;;
40162;SDS011;25881;47.462;19.304;2022-09-01T02:21:38;6.88;;;3.17;;
40162;SDS011;25881;47.462;19.304;2022-09-01T02:24:18;9.48;;;3.40;;
40162;SDS011;25881;47.462;19.304;2022-09-01T02:26:44;6.32;;;2.70;;
40162;SDS011;25881;47.462;19.304;2022-09-01T02:29:22;7.85;;;3.47;;
40162;SDS011;25881;47.462;19.304;2022-09-01T02:31:53;9.13;;;3.70;;
40162;SDS011;25881;47.462;19.304;2022-09-01T02:34:19;4.95;;;2.92;;
40162;SDS011;25881;47.462;19.304;2022-09-01T02:36:46;7.55;;;3.10;;
40162;SDS011;25881;47.462;19.304;2022-09-01T02:39:18;5.68;;;3.45;;
40162;SDS011;25881;47.462;19.304;2022-09-01T02:41:44;4.85;;;3.03;;
40162;SDS011;25881;47.462;19.304;2022-09-01T02:44:10;5.65;;;3.05;;
40162;SDS011;25881;47.462;19.304;2022-09-01T02:46:42;5.32;;;3.38;;
40162;SDS011;25881;47.462;19.304;2022-09-01T02:49:08;5.80;;;2.97;;
40162;SDS011;25881;47.462;19.304;2022-09-01T02:51:39;5.13;;;3.58;;
40162;SDS011;25881;47.462;19.304;2022-09-01T02:54:04;8.57;;;3.30;;
40162;SDS011;25881;47.462;19.304;2022-09-01T02:56:30;7.32;;;3.20;;
40162;SDS011;25881;47.462;19.304;2022-09-01T02:58:55;4.67;;;2.73;;
40162;SDS011;25881;47.462;19.304;2022-09-01T03:01:21;7.80;;;2.60;;
40162;SDS011;25881;47.462;19.304;2022-09-01T03:03:48;6.72;;;2.55;;
40162;SDS011;25881;47.462;19.304;2022-09-01T03:06:14;5.88;;;2.63;;
40162;SDS011;25881;47.462;19.304;2022-09-01T03:08:42;5.88;;;2.25;;
40162;SDS011;25881;47.462;19.304;2022-09-01T03:11:07;4.87;;;1.97;;
40162;SDS011;25881;47.462;19.304;2022-09-01T03:13:35;6.03;;;2.30;;
40162;SDS011;25881;47.462;19.304;2022-09-01T03:16:01;8.77;;;2.00;;
40162;SDS011;25881;47.462;19.304;2022-09-01T03:18:27;5.50;;;2.42;;
40162;SDS011;25881;47.462;19.304;2022-09-01T03:20:52;7.28;;;2.53;;
40162;SDS011;25881;47.462;19.304;2022-09-01T03:23:18;7.07;;;2.22;;
40162;SDS011;25881;47.462;19.304;2022-09-01T03:25:44;4.80;;;2.03;;
40162;SDS011;25881;47.462;19.304;2022-09-01T03:28:10;6.07;;;2.45;;
40162;SDS011;25881;47.462;19.304;2022-09-01T03:30:37;8.65;;;2.28;;
40162;SDS011;25881;47.462;19.304;2022-09-01T03:33:04;5.18;;;2.10;;
40162;SDS011;25881;47.462;19.304;2022-09-01T03:35:29;7.53;;;2.38;;
40162;SDS011;25881;47.462;19.304;2022-09-01T03:37:56;4.35;;;2.30;;
40162;SDS011;25881;47.462;19.304;2022-09-01T03:40:23;6.22;;;2.05;;
40162;SDS011;25881;47.462;19.304;2022-09-01T03:42:49;5.30;;;2.50;;
40162;SDS011;25881;47.462;19.304;2022-09-01T03:45:17;7.28;;;2.55;;
40162;SDS011;25881;47.462;19.304;2022-09-01T03:47:44;4.72;;;2.40;;
40162;SDS011;25881;47.462;19.304;2022-09-01T03:50:14;5.32;;;2.20;;
40162;SDS011;25881;47.462;19.304;2022-09-01T03:52:48;3.65;;;2.20;;
40162;SDS011;25881;47.462;19.304;2022-09-01T03:55:15;6.55;;;1.92;;
40162;SDS011;25881;47.462;19.304;2022-09-01T03:57:47;5.05;;;2.35;;
40162;SDS011;25881;47.462;19.304;2022-09-01T04:00:12;3.85;;;2.25;;
40162;SDS011;25881;47.462;19.304;2022-09-01T04:02:44;5.80;;;2.60;;
40162;SDS011;25881;47.462;19.304;2022-09-01T04:05:11;4.60;;;2.30;;
40162;SDS011;25881;47.462;19.304;2022-09-01T04:07:36;4.50;;;2.58;;
40162;SDS011;25881;47.462;19.304;2022-09-01T04:10:02;3.40;;;2.15;;
40162;SDS011;25881;47.462;19.304;2022-09-01T04:12:28;9.35;;;2.40;;
40162;SDS011;25881;47.462;19.304;2022-09-01T04:14:53;5.10;;;2.10;;
40162;SDS011;25881;47.462;19.304;2022-09-01T04:17:19;5.10;;;2.17;;
40162;SDS011;25881;47.462;19.304;2022-09-01T04:20:02;5.43;;;1.90;;
40162;SDS011;25881;47.462;19.304;2022-09-01T04:22:33;5.28;;;2.05;;
40162;SDS011;25881;47.462;19.304;2022-09-01T04:24:59;3.28;;;2.22;;
40162;SDS011;25881;47.462;19.304;2022-09-01T04:27:25;4.10;;;2.30;;
40162;SDS011;25881;47.462;19.304;2022-09-01T04:29:50;5.10;;;2.05;;
40162;SDS011;25881;47.462;19.304;2022-09-01T04:32:16;2.47;;;1.83;;
40162;SDS011;25881;47.462;19.304;2022-09-01T04:34:45;5.18;;;2.28;;
40162;SDS011;25881;47.462;19.304;2022-09-01T04:37:11;4.60;;;2.30;;
40162;SDS011;25881;47.462;19.304;2022-09-01T04:39:37;7.47;;;2.72;;
40162;SDS011;25881;47.462;19.304;2022-09-01T04:42:03;4.28;;;2.20;;
40162;SDS011;25881;47.462;19.304;2022-09-01T04:44:33;5.05;;;2.67;;
40162;SDS011;25881;47.462;19.304;2022-09-01T04:46:58;4.13;;;2.30;;
40162;SDS011;25881;47.462;19.304;2022-09-01T04:49:24;4.35;;;2.53;;
40162;SDS011;25881;47.462;19.304;2022-09-01T04:51:51;3.00;;;1.90;;
40162;SDS011;25881;47.462;19.304;2022-09-01T04:54:17;6.28;;;2.28;;
40162;SDS011;25881;47.462;19.304;2022-09-01T04:56:44;3.53;;;2.00;;
40162;SDS011;25881;47.462;19.304;2022-09-01T04:59:10;4.03;;;2.30;;
40162;SDS011;25881;47.462;19.304;2022-09-01T05:01:36;4.75;;;2.22;;
40162;SDS011;25881;47.462;19.304;2022-09-01T05:04:11;3.72;;;1.98;;
40162;SDS011;25881;47.462;19.304;2022-09-01T05:06:38;3.42;;;2.13;;
40162;SDS011;25881;47.462;19.304;2022-09-01T05:09:05;4.97;;;2.50;;
40162;SDS011;25881;47.462;19.304;2022-09-01T05:11:31;4.07;;;2.30;;
40162;SDS011;25881;47.462;19.304;2022-09-01T05:13:57;3.80;;;2.50;;
40162;SDS011;25881;47.462;19.304;2022-09-01T05:16:22;6.60;;;2.90;;
40162;SDS011;25881;47.462;19.304;2022-09-01T05:18:50;6.05;;;2.65;;
40162;SDS011;25881;47.462;19.304;2022-09-01T05:21:16;6.63;;;2.38;;
40162;SDS011;25881;47.462;19.304;2022-09-01T05:23:43;3.58;;;1.92;;
40162;SDS011;25881;47.462;19.304;2022-09-01T05:26:16;3.83;;;2.33;;
40162;SDS011;25881;47.462;19.304;2022-09-01T05:29:04;5.22;;;1.90;;
40162;SDS011;25881;47.462;19.304;2022-09-01T05:31:27;4.70;;;2.28;;
40162;SDS011;25881;47.462;19.304;2022-09-01T05:33:58;5.68;;;2.10;;
40162;SDS011;25881;47.462;19.304;2022-09-01T05:36:25;3.72;;;2.35;;
40162;SDS011;25881;47.462;19.304;2022-09-01T05:38:52;5.13;;;1.98;;
40162;SDS011;25881;47.462;19.304;2022-09-01T05:41:18;8.63;;;2.42;;
40162;SDS011;25881;47.462;19.304;2022-09-01T05:43:45;5.68;;;2.38;;
40162;SDS011;25881;47.462;19.304;2022-09-01T05:46:17;4.75;;;2.78;;
40162;SDS011;25881;47.462;19.304;2022-09-01T05:48:43;6.20;;;2.22;;
40162;SDS011;25881;47.462;19.304;2022-09-01T05:51:09;4.85;;;2.58;;
40162;SDS011;25881;47.462;19.304;2022-09-01T05:53:35;5.95;;;2.50;;
40162;SDS011;25881;47.462;19.304;2022-09-01T05:56:05;4.88;;;2.60;;
40162;SDS011;25881;47.462;19.304;2022-09-01T05:58:32;7.80;;;2.60;;
40162;SDS011;25881;47.462;19.304;2022-09-01T06:00:58;4.15;;;2.22;;
40162;SDS011;25881;47.462;19.304;2022-09-01T06:03:24;8.50;;;2.55;;
40162;SDS011;25881;47.462;19.304;2022-09-01T06:05:51;4.72;;;2.00;;
40162;SDS011;25881;47.462;19.304;2022-09-01T06:08:18;5.00;;;2.72;;
40162;SDS011;25881;47.462;19.304;2022-09-01T06:10:44;5.97;;;2.08;;
40162;SDS011;25881;47.462;19.304;2022-09-01T06:13:09;5.30;;;2.22;;
40162;SDS011;25881;47.462;19.304;2022-09-01T06:15:36;6.13;;;2.30;;
40162;SDS011;25881;47.462;19.304;2022-09-01T06:18:04;6.70;;;2.47;;
40162;SDS011;25881;47.462;19.304;2022-09-01T06:20:30;4.63;;;2.35;;
40162;SDS011;25881;47.462;19.304;2022-09-01T06:22:56;4.23;;;2.70;;
40162;SDS011;25881;47.462;19.304;2022-09-01T06:25:21;4.70;;;2.17;;
40162;SDS011;25881;47.462;19.304;2022-09-01T06:27:47;6.22;;;2.75;;
40162;SDS011;25881;47.462;19.304;2022-09-01T06:30:14;6.82;;;2.85;;
40162;SDS011;25881;47.462;19.304;2022-09-01T06:32:41;5.53;;;2.47;;
40162;SDS011;25881;47.462;19.304;2022-09-01T06:35:11;5.28;;;3.00;;
40162;SDS011;25881;47.462;19.304;2022-09-01T06:37:39;6.00;;;2.75;;
40162;SDS011;25881;47.462;19.304;2022-09-01T06:40:08;5.63;;;2.83;;
40162;SDS011;25881;47.462;19.304;2022-09-01T06:42:35;4.60;;;2.22;;
40162;SDS011;25881;47.462;19.304;2022-09-01T06:45:01;4.38;;;2.30;;
40162;SDS011;25881;47.462;19.304;2022-09-01T06:47:27;4.97;;;2.42;;
40162;SDS011;25881;47.462;19.304;2022-09-01T06:49:53;4.57;;;2.70;;
40162;SDS011;25881;47.462;19.304;2022-09-01T06:52:22;6.85;;;2.97;;
40162;SDS011;25881;47.462;19.304;2022-09-01T06:54:48;5.93;;;2.40;;
40162;SDS011;25881;47.462;19.304;2022-09-01T06:57:17;2.95;;;2.28;;
40162;SDS011;25881;47.462;19.304;2022-09-01T06:59:42;7.55;;;2.38;;
40162;SDS011;25881;47.462;19.304;2022-09-01T07:02:07;9.93;;;2.80;;
40162;SDS011;25881;47.462;19.304;2022-09-01T07:04:33;4.40;;;1.90;;
40162;SDS011;25881;47.462;19.304;2022-09-01T07:06:58;4.68;;;2.20;;
40162;SDS011;25881;47.462;19.304;2022-09-01T07:09:24;5.15;;;1.83;;
40162;SDS011;25881;47.462;19.304;2022-09-01T07:11:50;4.70;;;2.10;;
40162;SDS011;25881;47.462;19.304;2022-09-01T07:14:16;4.20;;;2.13;;
40162;SDS011;25881;47.462;19.304;2022-09-01T07:16:42;4.85;;;2.10;;
40162;SDS011;25881;47.462;19.304;2022-09-01T07:19:09;4.70;;;1.88;;
40162;SDS011;25881;47.462;19.304;2022-09-01T07:24:02;5.05;;;2.30;;
40162;SDS011;25881;47.462;19.304;2022-09-01T07:26:28;5.90;;;2.50;;
40162;SDS011;25881;47.462;19.304;2022-09-01T07:28:54;2.90;;;2.08;;
40162;SDS011;25881;47.462;19.304;2022-09-01T07:31:21;4.78;;;2.22;;
40162;SDS011;25881;47.462;19.304;2022-09-01T07:33:48;3.35;;;1.85;;
40162;SDS011;25881;47.462;19.304;2022-09-01T07:36:15;4.05;;;2.03;;
40162;SDS011;25881;47.462;19.304;2022-09-01T07:38:40;3.30;;;1.80;;
40162;SDS011;25881;47.462;19.304;2022-09-01T07:41:07;3.80;;;1.80;;
40162;SDS011;25881;47.462;19.304;2022-09-01T07:43:32;2.58;;;2.00;;
40162;SDS011;25881;47.462;19.304;2022-09-01T07:45:58;7.07;;;2.55;;
40162;SDS011;25881;47.462;19.304;2022-09-01T07:48:24;7.13;;;2.30;;
40162;SDS011;25881;47.462;19.304;2022-09-01T07:50:52;5.30;;;1.67;;
40162;SDS011;25881;47.462;19.304;2022-09-01T07:53:20;3.13;;;1.83;;
40162;SDS011;25881;47.462;19.304;2022-09-01T07:55:46;3.05;;;2.00;;
40162;SDS011;25881;47.462;19.304;2022-09-01T07:58:13;3.25;;;1.92;;
40162;SDS011;25881;47.462;19.304;2022-09-01T08:00:39;2.83;;;1.80;;
40162;SDS011;25881;47.462;19.304;2022-09-01T08:03:05;4.40;;;2.05;;
40162;SDS011;25881;47.462;19.304;2022-09-01T08:05:30;5.90;;;1.88;;
40162;SDS011;25881;47.462;19.304;2022-09-01T08:07:57;4.85;;;2.15;;
40162;SDS011;25881;47.462;19.304;2022-09-01T08:10:22;5.47;;;2.70;;
40162;SDS011;25881;47.462;19.304;2022-09-01T08:12:49;4.80;;;1.63;;
40162;SDS011;25881;47.462;19.304;2022-09-01T08:15:14;3.80;;;2.03;;
40162;SDS011;25881;47.462;19.304;2022-09-01T08:17:41;4.20;;;2.30;;
40162;SDS011;25881;47.462;19.304;2022-09-01T08:20:06;6.85;;;2.40;;
40162;SDS011;25881;47.462;19.304;2022-09-01T08:22:34;5.57;;;2.40;;
40162;SDS011;25881;47.462;19.304;2022-09-01T08:24:59;6.43;;;2.45;;
40162;SDS011;25881;47.462;19.304;2022-09-01T08:27:24;6.07;;;2.53;;
40162;SDS011;25881;47.462;19.304;2022-09-01T08:29:49;6.00;;;2.33;;
40162;SDS011;25881;47.462;19.304;2022-09-01T08:32:15;4.00;;;2.30;;
40162;SDS011;25881;47.462;19.304;2022-09-01T08:34:40;4.60;;;2.30;;
40162;SDS011;25881;47.462;19.304;2022-09-01T08:37:07;4.47;;;2.33;;
40162;SDS011;25881;47.462;19.304;2022-09-01T08:39:32;4.63;;;2.30;;
40162;SDS011;25881;47.462;19.304;2022-09-01T08:47:12;6.20;;;2.30;;
40162;SDS011;25881;47.462;19.304;2022-09-01T08:49:38;3.17;;;1.83;;
40162;SDS011;25881;47.462;19.304;2022-09-01T08:54:52;5.43;;;2.17;;
40162;SDS011;25881;47.462;19.304;2022-09-01T08:57:23;5.20;;;2.45;;
40162;SDS011;25881;47.462;19.304;2022-09-01T08:59:50;4.85;;;2.13;;
40162;SDS011;25881;47.462;19.304;2022-09-01T09:07:13;4.90;;;2.23;;
40162;SDS011;25881;47.462;19.304;2022-09-01T09:09:46;3.67;;;2.65;;
40162;SDS011;25881;47.462;19.304;2022-09-01T09:12:32;3.63;;;1.90;;
40162;SDS011;25881;47.462;19.304;2022-09-01T09:17:40;4.75;;;1.92;;
40162;SDS011;25881;47.462;19.304;2022-09-01T09:20:10;5.95;;;2.08;;
40162;SDS011;25881;47.462;19.304;2022-09-01T09:22:35;4.53;;;2.03;;
40162;SDS011;25881;47.462;19.304;2022-09-01T09:25:08;7.10;;;2.10;;
40162;SDS011;25881;47.462;19.304;2022-09-01T09:27:35;5.85;;;2.17;;
40162;SDS011;25881;47.462;19.304;2022-09-01T09:35:18;5.28;;;2.15;;
40162;SDS011;25881;47.462;19.304;2022-09-01T09:37:44;7.07;;;1.50;;
40162;SDS011;25881;47.462;19.304;2022-09-01T09:40:11;4.53;;;1.70;;
40162;SDS011;25881;47.462;19.304;2022-09-01T09:42:40;3.95;;;1.80;;
40162;SDS011;25881;47.462;19.304;2022-09-01T09:45:13;4.97;;;1.65;;
40162;SDS011;25881;47.462;19.304;2022-09-01T09:47:41;5.93;;;2.00;;
40162;SDS011;25881;47.462;19.304;2022-09-01T09:50:10;7.05;;;2.20;;
40162;SDS011;25881;47.462;19.304;2022-09-01T09:52:36;4.55;;;1.77;;
40162;SDS011;25881;47.462;19.304;2022-09-01T09:55:03;3.50;;;1.73;;
40162;SDS011;25881;47.462;19.304;2022-09-01T09:57:29;4.67;;;2.37;;
40162;SDS011;25881;47.462;19.304;2022-09-01T10:00:02;4.20;;;1.60;;
40162;SDS011;25881;47.462;19.304;2022-09-01T10:02:35;6.30;;;1.85;;
40162;SDS011;25881;47.462;19.304;2022-09-01T10:07:46;5.72;;;1.83;;
40162;SDS011;25881;47.462;19.304;2022-09-01T10:12:55;3.78;;;1.60;;
40162;SDS011;25881;47.462;19.304;2022-09-01T10:15:22;4.60;;;2.47;;
40162;SDS011;25881;47.462;19.304;2022-09-01T10:17:48;4.38;;;1.77;;
40162;SDS011;25881;47.462;19.304;2022-09-01T10:20:21;3.35;;;1.40;;
40162;SDS011;25881;47.462;19.304;2022-09-01T10:22:46;5.03;;;1.70;;
40162;SDS011;25881;47.462;19.304;2022-09-01T10:25:16;4.15;;;1.83;;
40162;SDS011;25881;47.462;19.304;2022-09-01T10:27:42;6.97;;;1.90;;
40162;SDS011;25881;47.462;19.304;2022-09-01T10:32:54;6.15;;;2.47;;
40162;SDS011;25881;47.462;19.304;2022-09-01T10:35:29;10.48;;;2.15;;
40162;SDS011;25881;47.462;19.304;2022-09-01T10:37:56;5.72;;;1.52;;
40162;SDS011;25881;47.462;19.304;2022-09-01T10:42:48;4.35;;;1.67;;
40162;SDS011;25881;47.462;19.304;2022-09-01T10:45:28;3.92;;;1.52;;
40162;SDS011;25881;47.462;19.304;2022-09-01T10:47:54;3.42;;;1.70;;
40162;SDS011;25881;47.462;19.304;2022-09-01T11:15:53;2.70;;;1.27;;
40162;SDS011;25881;47.462;19.304;2022-09-01T11:18:25;1.73;;;1.20;;
40162;SDS011;25881;47.462;19.304;2022-09-01T11:20:51;2.20;;;1.17;;
40162;SDS011;25881;47.462;19.304;2022-09-01T11:25:46;1.30;;;1.13;;
40162;SDS011;25881;47.462;19.304;2022-09-01T11:30:48;4.40;;;1.20;;
40162;SDS011;25881;47.462;19.304;2022-09-01T11:38:44;2.13;;;1.25;;
40162;SDS011;25881;47.462;19.304;2022-09-01T11:41:18;2.40;;;1.08;;
40162;SDS011;25881;47.462;19.304;2022-09-01T11:43:44;3.75;;;1.10;;
40162;SDS011;25881;47.462;19.304;2022-09-01T11:46:15;2.30;;;1.03;;
40162;SDS011;25881;47.462;19.304;2022-09-01T11:48:45;1.17;;;1.00;;
40162;SDS011;25881;47.462;19.304;2022-09-01T11:51:11;5.75;;;1.25;;
40162;SDS011;25881;47.462;19.304;2022-09-01T11:53:36;1.50;;;1.07;;
40162;SDS011;25881;47.462;19.304;2022-09-01T11:56:12;2.53;;;1.30;;
40162;SDS011;25881;47.462;19.304;2022-09-01T11:58:37;3.50;;;1.45;;
40162;SDS011;25881;47.462;19.304;2022-09-01T12:03:40;2.10;;;0.75;;
40162;SDS011;25881;47.462;19.304;2022-09-01T12:06:06;1.90;;;1.38;;
40162;SDS011;25881;47.462;19.304;2022-09-01T12:08:33;2.05;;;1.05;;
40162;SDS011;25881;47.462;19.304;2022-09-01T12:11:04;4.82;;;1.20;;
40162;SDS011;25881;47.462;19.304;2022-09-01T12:13:30;2.63;;;1.30;;
40162;SDS011;25881;47.462;19.304;2022-09-01T12:15:59;5.43;;;1.53;;
40162;SDS011;25881;47.462;19.304;2022-09-01T12:18:29;2.08;;;1.00;;
40162;SDS011;25881;47.462;19.304;2022-09-01T12:20:58;5.80;;;1.00;;
40162;SDS011;25881;47.462;19.304;2022-09-01T12:23:27;4.00;;;1.33;;
40162;SDS011;25881;47.462;19.304;2022-09-01T12:25:54;1.33;;;1.08;;
40162;SDS011;25881;47.462;19.304;2022-09-01T12:28:20;1.20;;;0.88;;
40162;SDS011;25881;47.462;19.304;2022-09-01T12:30:47;1.87;;;1.00;;
40162;SDS011;25881;47.462;19.304;2022-09-01T12:33:13;3.03;;;1.15;;
40162;SDS011;25881;47.462;19.304;2022-09-01T12:35:41;4.03;;;1.30;;
40162;SDS011;25881;47.462;19.304;2022-09-01T12:40:44;1.63;;;0.73;;
40162;SDS011;25881;47.462;19.304;2022-09-01T12:43:10;4.85;;;1.48;;
40162;SDS011;25881;47.462;19.304;2022-09-01T12:45:40;2.92;;;1.00;;
40162;SDS011;25881;47.462;19.304;2022-09-01T12:48:05;2.00;;;1.20;;
40162;SDS011;25881;47.462;19.304;2022-09-01T12:50:32;3.03;;;1.48;;
40162;SDS011;25881;47.462;19.304;2022-09-01T12:52:59;2.22;;;1.08;;
40162;SDS011;25881;47.462;19.304;2022-09-01T12:55:32;1.67;;;0.90;;
40162;SDS011;25881;47.462;19.304;2022-09-01T12:57:58;5.13;;;1.48;;
40162;SDS011;25881;47.462;19.304;2022-09-01T13:00:31;2.38;;;1.17;;
40162;SDS011;25881;47.462;19.304;2022-09-01T13:03:05;2.40;;;1.20;;
40162;SDS011;25881;47.462;19.304;2022-09-01T13:05:34;1.55;;;1.10;;
40162;SDS011;25881;47.462;19.304;2022-09-01T13:08:05;2.75;;;1.20;;
40162;SDS011;25881;47.462;19.304;2022-09-01T13:10:32;2.90;;;1.30;;
40162;SDS011;25881;47.462;19.304;2022-09-01T13:12:58;3.45;;;1.00;;
40162;SDS011;25881;47.462;19.304;2022-09-01T13:15:24;5.30;;;0.97;;
40162;SDS011;25881;47.462;19.304;2022-09-01T13:17:49;4.07;;;1.30;;
40162;SDS011;25881;47.462;19.304;2022-09-01T13:20:15;3.85;;;1.00;;
40162;SDS011;25881;47.462;19.304;2022-09-01T13:22:40;2.83;;;1.05;;
40162;SDS011;25881;47.462;19.304;2022-09-01T13:25:06;1.80;;;1.20;;
40162;SDS011;25881;47.462;19.304;2022-09-01T13:27:34;1.95;;;1.20;;
40162;SDS011;25881;47.462;19.304;2022-09-01T13:30:00;1.73;;;1.30;;
40162;SDS011;25881;47.462;19.304;2022-09-01T13:32:25;3.73;;;1.17;;
40162;SDS011;25881;47.462;19.304;2022-09-01T13:34:51;2.92;;;1.10;;
40162;SDS011;25881;47.462;19.304;2022-09-01T13:37:16;9.05;;;1.38;;
40162;SDS011;25881;47.462;19.304;2022-09-01T13:39:41;2.00;;;1.20;;
40162;SDS011;25881;47.462;19.304;2022-09-01T13:42:07;5.83;;;1.33;;
40162;SDS011;25881;47.462;19.304;2022-09-01T13:44:32;1.73;;;1.10;;
40162;SDS011;25881;47.462;19.304;2022-09-01T13:46:57;2.13;;;1.02;;
40162;SDS011;25881;47.462;19.304;2022-09-01T13:49:23;2.87;;;1.07;;
40162;SDS011;25881;47.462;19.304;2022-09-01T13:51:51;2.80;;;1.20;;
40162;SDS011;25881;47.462;19.304;2022-09-01T13:54:16;3.63;;;1.13;;
40162;SDS011;25881;47.462;19.304;2022-09-01T13:56:42;2.83;;;1.30;;
40162;SDS011;25881;47.462;19.304;2022-09-01T13:59:08;1.27;;;0.90;;
40162;SDS011;25881;47.462;19.304;2022-09-01T14:01:33;4.10;;;1.25;;
40162;SDS011;25881;47.462;19.304;2022-09-01T14:03:58;3.37;;;1.27;;
40162;SDS011;25881;47.462;19.304;2022-09-01T14:06:23;4.73;;;1.00;;
40162;SDS011;25881;47.462;19.304;2022-09-01T14:08:48;3.33;;;1.23;;
40162;SDS011;25881;47.462;19.304;2022-09-01T14:11:15;2.60;;;1.02;;
40162;SDS011;25881;47.462;19.304;2022-09-01T14:13:40;3.95;;;1.13;;
40162;SDS011;25881;47.462;19.304;2022-09-01T14:16:09;2.53;;;1.10;;
40162;SDS011;25881;47.462;19.304;2022-09-01T14:18:34;3.65;;;1.10;;
40162;SDS011;25881;47.462;19.304;2022-09-01T14:21:00;4.28;;;1.30;;
40162;SDS011;25881;47.462;19.304;2022-09-01T14:23:26;1.90;;;1.35;;
40162;SDS011;25881;47.462;19.304;2022-09-01T14:25:51;2.40;;;0.98;;
40162;SDS011;25881;47.462;19.304;2022-09-01T14:28:17;4.13;;;1.17;;
40162;SDS011;25881;47.462;19.304;2022-09-01T14:30:42;2.05;;;1.25;;
40162;SDS011;25881;47.462;19.304;2022-09-01T14:33:09;2.55;;;1.10;;
40162;SDS011;25881;47.462;19.304;2022-09-01T14:35:36;3.60;;;0.90;;
40162;SDS011;25881;47.462;19.304;2022-09-01T14:38:02;1.17;;;0.80;;
40162;SDS011;25881;47.462;19.304;2022-09-01T14:40:29;3.80;;;1.40;;
40162;SDS011;25881;47.462;19.304;2022-09-01T14:42:54;1.85;;;1.23;;
40162;SDS011;25881;47.462;19.304;2022-09-01T14:45:24;1.92;;;1.10;;
40162;SDS011;25881;47.462;19.304;2022-09-01T14:47:51;3.70;;;1.20;;
40162;SDS011;25881;47.462;19.304;2022-09-01T14:50:17;2.38;;;1.05;;
40162;SDS011;25881;47.462;19.304;2022-09-01T14:52:44;1.23;;;0.85;;
40162;SDS011;25881;47.462;19.304;2022-09-01T14:55:11;3.78;;;1.08;;
40162;SDS011;25881;47.462;19.304;2022-09-01T14:57:36;1.80;;;1.20;;
40162;SDS011;25881;47.462;19.304;2022-09-01T15:00:03;1.33;;;1.00;;
40162;SDS011;25881;47.462;19.304;2022-09-01T15:02:28;3.92;;;1.17;;
40162;SDS011;25881;47.462;19.304;2022-09-01T15:04:54;3.13;;;1.20;;
40162;SDS011;25881;47.462;19.304;2022-09-01T15:07:19;1.58;;;1.13;;
40162;SDS011;25881;47.462;19.304;2022-09-01T15:09:44;3.13;;;1.20;;
40162;SDS011;25881;47.462;19.304;2022-09-01T15:12:10;4.33;;;1.10;;
40162;SDS011;25881;47.462;19.304;2022-09-01T15:14:35;2.20;;;1.00;;
40162;SDS011;25881;47.462;19.304;2022-09-01T15:17:01;3.90;;;0.98;;
40162;SDS011;25881;47.462;19.304;2022-09-01T15:19:26;2.17;;;1.00;;
40162;SDS011;25881;47.462;19.304;2022-09-01T15:21:51;2.60;;;1.20;;
40162;SDS011;25881;47.462;19.304;2022-09-01T15:24:17;1.83;;;1.08;;
40162;SDS011;25881;47.462;19.304;2022-09-01T15:26:42;5.05;;;1.55;;
40162;SDS011;25881;47.462;19.304;2022-09-01T15:29:10;2.60;;;1.17;;
40162;SDS011;25881;47.462;19.304;2022-09-01T15:31:37;3.25;;;1.20;;
40162;SDS011;25881;47.462;19.304;2022-09-01T15:34:03;2.45;;;0.95;;
40162;SDS011;25881;47.462;19.304;2022-09-01T15:36:29;4.15;;;1.23;;
40162;SDS011;25881;47.462;19.304;2022-09-01T15:38:54;2.45;;;0.95;;
40162;SDS011;25881;47.462;19.304;2022-09-01T15:41:21;2.35;;;0.88;;
40162;SDS011;25881;47.462;19.304;2022-09-01T15:43:47;2.00;;;1.20;;
40162;SDS011;25881;47.462;19.304;2022-09-01T15:46:13;3.00;;;1.02;;
40162;SDS011;25881;47.462;19.304;2022-09-01T15:48:38;2.55;;;1.10;;
40162;SDS011;25881;47.462;19.304;2022-09-01T15:53:48;1.30;;;0.90;;
40162;SDS011;25881;47.462;19.304;2022-09-01T15:56:13;4.82;;;1.23;;